Time;durP1;ratioP1;P1;durP2;ratioP2;P2;SDS_P1;SDS_P2;PMS_P1;PMS_P2;Temp;Humidity;BMP_temperature;BMP_pressure;BME280_temperature;BME280_humidity;BME280_pressure;Samples;Min_cycle;Max_cycle;Signal;HPM_P1;HPM_P2
2024/01/02 00:00:13;;;;;;;11.43;3.20;;;;;;;5.63;100.00;99943.31;5069418;28;20163;-46
2024/01/02 00:02:41;;;;;;;15.80;3.03;;;;;;;5.64;100.00;99931.94;5067549;28;20122;-47
2024/01/02 00:05:10;;;;;;;14.70;3.00;;;;;;;5.65;100.00;99931.03;5071027;28;20047;-47
2024/01/02 00:07:39;;;;;;;14.68;2.50;;;;;;;5.65;100.00;99929.25;5071380;28;20059;-47
2024/01/02 00:10:08;;;;;;;17.80;2.90;;;;;;;5.64;100.00;99916.28;5071537;28;20507;-47
2024/01/02 00:12:37;;;;;;;14.40;2.60;;;;;;;5.67;100.00;99892.63;5070148;28;20045;-47
2024/01/02 00:15:06;;;;;;;18.48;2.78;;;;;;;5.66;100.00;99893.53;5071313;28;20103;-46
2024/01/02 00:17:36;;;;;;;15.52;2.50;;;;;;;5.64;100.00;99892.81;5071713;28;20048;-46
2024/01/02 00:20:05;;;;;;;12.38;2.85;;;;;;;5.64;100.00;99882.38;5071685;28;20048;-46
2024/01/02 00:22:34;;;;;;;13.18;2.45;;;;;;;5.69;100.00;99885.56;5071765;28;20423;-47
2024/01/02 00:25:05;;;;;;;16.08;2.92;;;;;;;5.71;100.00;99865.41;5071495;28;20048;-47
2024/01/02 00:27:36;;;;;;;10.90;2.33;;;;;;;5.70;100.00;99866.34;5070174;28;20044;-46
2024/01/02 00:30:05;;;;;;;15.55;2.85;;;;;;;5.71;100.00;99866.28;5070057;28;20052;-46
2024/01/02 00:32:34;;;;;;;10.95;2.13;;;;;;;5.74;100.00;99850.44;5071358;28;20059;-46
2024/01/02 00:35:04;;;;;;;14.65;2.60;;;;;;;5.70;100.00;99835.91;5069948;28;20125;-46
2024/01/02 00:37:33;;;;;;;10.48;2.15;;;;;;;5.73;100.00;99827.88;5074995;28;20102;-46
2024/01/02 00:40:01;;;;;;;12.85;3.75;;;;;;;5.74;100.00;99820.91;5075120;28;20118;-47
2024/01/02 00:42:29;;;;;;;11.02;2.42;;;;;;;5.74;100.00;99800.84;5073735;28;20052;-47
2024/01/02 00:44:59;;;;;;;11.48;2.90;;;;;;;5.76;100.00;99791.16;5074302;28;20051;-47
2024/01/02 00:47:27;;;;;;;8.38;1.98;;;;;;;5.76;100.00;99792.94;5071030;28;20049;-46
2024/01/02 00:49:55;;;;;;;13.20;2.47;;;;;;;5.72;100.00;99774.00;5071910;28;20507;-48
2024/01/02 00:52:25;;;;;;;15.60;2.63;;;;;;;5.74;100.00;99763.50;5074969;28;20045;-45
2024/01/02 00:54:53;;;;;;;13.02;2.33;;;;;;;5.79;100.00;99752.78;5074894;28;20507;-46
2024/01/02 00:57:21;;;;;;;9.77;2.30;;;;;;;5.75;100.00;99739.91;5074782;28;20055;-45
2024/01/02 00:59:50;;;;;;;15.32;2.38;;;;;;;5.73;100.00;99730.50;5074738;28;20051;-45
2024/01/02 01:02:18;;;;;;;8.57;2.15;;;;;;;5.78;100.00;99727.59;5074813;28;20036;-46
2024/01/02 01:04:46;;;;;;;9.32;2.25;;;;;;;5.82;100.00;99722.13;5074866;28;20399;-45
2024/01/02 01:07:15;;;;;;;9.90;2.30;;;;;;;5.81;100.00;99703.91;5074413;28;20787;-45
2024/01/02 01:09:44;;;;;;;10.40;2.15;;;;;;;5.80;100.00;99708.31;5073286;28;20056;-46
2024/01/02 01:12:13;;;;;;;9.30;2.00;;;;;;;5.83;100.00;99696.84;5074666;28;20045;-46
2024/01/02 01:14:41;;;;;;;7.32;2.40;;;;;;;5.85;100.00;99679.31;5073400;28;20071;-46
2024/01/02 01:17:09;;;;;;;16.42;2.47;;;;;;;5.87;100.00;99667.84;5074501;28;20044;-47
2024/01/02 01:19:38;;;;;;;10.82;2.10;;;;;;;5.88;100.00;99660.84;5074631;28;20052;-46
2024/01/02 01:22:06;;;;;;;10.65;1.90;;;;;;;5.88;100.00;99651.25;5074254;28;20074;-45
2024/01/02 01:24:34;;;;;;;9.38;2.20;;;;;;;5.91;100.00;99639.78;5074280;28;20052;-48
2024/01/02 01:27:04;;;;;;;8.30;1.92;;;;;;;5.90;100.00;99628.50;5074012;28;20044;-50
2024/01/02 01:29:32;;;;;;;9.30;2.28;;;;;;;5.87;100.00;99631.31;5073938;28;20119;-46
2024/01/02 01:32:00;;;;;;;10.52;1.73;;;;;;;5.91;100.00;99622.34;5074225;28;20131;-46
2024/01/02 01:34:28;;;;;;;7.82;1.67;;;;;;;5.94;100.00;99616.09;5074085;28;20040;-47
2024/01/02 01:36:56;;;;;;;8.43;2.00;;;;;;;5.95;100.00;99606.50;5073324;28;20052;-48
2024/01/02 01:39:24;;;;;;;10.20;1.90;;;;;;;5.95;100.00;99590.84;5069211;28;20044;-47
2024/01/02 01:41:52;;;;;;;6.63;1.60;;;;;;;5.96;100.00;99598.56;5070239;28;20056;-45
2024/01/02 01:44:22;;;;;;;5.55;2.00;;;;;;;6.01;100.00;99574.78;5069714;28;20504;-48
2024/01/02 01:46:52;;;;;;;10.25;2.00;;;;;;;5.96;100.00;99558.56;5070164;28;20535;-44
2024/01/02 01:49:20;;;;;;;10.13;1.40;;;;;;;5.95;100.00;99539.47;5072952;28;20127;-46
2024/01/02 01:51:51;;;;;;;5.88;1.63;;;;;;;5.99;100.00;99540.16;5072595;28;20048;-45
2024/01/02 01:54:19;;;;;;;12.20;1.80;;;;;;;6.01;100.00;99533.88;5073879;28;20055;-44
2024/01/02 01:56:49;;;;;;;11.27;1.70;;;;;;;6.03;100.00;99532.00;5073923;28;20427;-46
2024/01/02 01:59:19;;;;;;;7.97;1.48;;;;;;;6.02;100.00;99519.88;5073746;28;20036;-49
2024/01/02 02:01:49;;;;;;;6.78;1.35;;;;;;;6.00;100.00;99503.50;5073723;28;20051;-46
2024/01/02 02:04:18;;;;;;;7.68;1.85;;;;;;;6.00;100.00;99489.59;5073862;28;20055;-46
2024/01/02 02:06:46;;;;;;;8.00;1.77;;;;;;;6.02;100.00;99478.13;5072124;28;20049;-45
2024/01/02 02:09:14;;;;;;;8.68;1.40;;;;;;;5.98;100.00;99460.16;5068863;28;20156;-45
2024/01/02 02:11:42;;;;;;;6.13;1.70;;;;;;;6.03;100.00;99458.09;5070218;28;20044;-46
2024/01/02 02:14:11;;;;;;;8.90;1.48;;;;;;;6.04;100.00;99449.28;5072351;28;20100;-50
2024/01/02 02:16:43;;;;;;;6.60;1.50;;;;;;;6.05;100.00;99448.34;5073561;28;20068;-47
2024/01/02 02:19:12;;;;;;;7.95;1.20;;;;;;;6.02;100.00;99433.75;5073335;28;20048;-47
2024/01/02 02:21:44;;;;;;;5.13;1.40;;;;;;;6.05;100.00;99417.91;5073540;28;20499;-46
2024/01/02 02:24:14;;;;;;;5.97;1.60;;;;;;;6.05;100.00;99412.69;5073632;28;20071;-45
2024/01/02 02:26:44;;;;;;;8.35;1.40;;;;;;;6.02;100.00;99402.44;5073187;28;20407;-46
2024/01/02 02:29:16;;;;;;;5.75;1.30;;;;;;;6.01;100.00;99394.69;5072926;28;20042;-45
2024/01/02 02:31:44;;;;;;;3.90;1.10;;;;;;;6.06;100.00;99382.19;5073260;28;20509;-45
2024/01/02 02:34:12;;;;;;;4.43;1.10;;;;;;;6.02;100.00;99370.28;5071274;28;20048;-46
2024/01/02 02:36:40;;;;;;;2.85;1.05;;;;;;;6.09;100.00;99374.13;5069714;28;20049;-48
2024/01/02 02:39:09;;;;;;;7.15;1.40;;;;;;;6.06;100.00;99364.72;5072122;28;20545;-45
2024/01/02 02:41:39;;;;;;;5.60;1.48;;;;;;;6.07;100.00;99358.56;5071680;28;20098;-45
2024/01/02 02:44:07;;;;;;;6.47;1.20;;;;;;;6.01;100.00;99347.72;5072814;28;20064;-47
2024/01/02 02:46:35;;;;;;;6.50;1.50;;;;;;;6.07;100.00;99344.69;5072947;28;20094;-46
2024/01/02 02:49:03;;;;;;;7.93;1.23;;;;;;;6.05;100.00;99333.50;5072578;28;20401;-47
2024/01/02 02:51:31;;;;;;;7.20;1.88;;;;;;;5.98;100.00;99338.34;5071307;28;20408;-47
2024/01/02 02:54:00;;;;;;;5.80;1.40;;;;;;;5.98;100.00;99321.84;5072190;28;20048;-47
2024/01/02 02:56:28;;;;;;;3.22;1.40;;;;;;;6.00;100.00;99317.34;5072382;28;20527;-47
2024/01/02 02:58:58;;;;;;;3.90;1.40;;;;;;;6.02;100.00;99307.66;5070665;28;20075;-47
2024/01/02 03:01:26;;;;;;;2.88;1.13;;;;;;;6.04;100.00;99303.13;5072350;28;20052;-46
2024/01/02 03:03:56;;;;;;;5.97;1.25;;;;;;;6.01;100.00;99298.13;5072519;28;20044;-49
2024/01/02 03:06:26;;;;;;;2.97;1.55;;;;;;;6.00;100.00;99279.03;5072256;28;20110;-50
2024/01/02 03:08:54;;;;;;;4.18;1.45;;;;;;;5.98;100.00;99272.25;5069036;28;20045;-48
2024/01/02 03:11:22;;;;;;;4.57;1.38;;;;;;;6.03;100.00;99275.38;5070181;28;20746;-47
2024/01/02 03:13:54;;;;;;;4.10;1.60;;;;;;;6.01;100.00;99262.44;5072438;28;20044;-47
2024/01/02 03:16:25;;;;;;;3.72;1.25;;;;;;;6.00;100.00;99249.50;5071096;28;20498;-48
2024/01/02 03:18:54;;;;;;;3.63;1.30;;;;;;;6.02;100.00;99239.78;5072275;28;20041;-48
2024/01/02 03:21:27;;;;;;;3.63;1.15;;;;;;;6.01;100.00;99233.75;5072190;28;20080;-47
2024/01/02 03:23:56;;;;;;;4.72;1.15;;;;;;;6.03;100.00;99218.78;5072135;28;20564;-45
2024/01/02 03:26:24;;;;;;;4.15;1.17;;;;;;;6.02;100.00;99205.84;5072081;28;20098;-47
2024/01/02 03:28:52;;;;;;;4.45;1.33;;;;;;;6.02;100.00;99177.16;5072139;28;20139;-47
2024/01/02 03:31:21;;;;;;;5.03;1.15;;;;;;;6.06;100.00;99165.53;5071751;28;20040;-47
2024/01/02 03:33:50;;;;;;;3.80;1.10;;;;;;;6.01;100.00;99152.84;5071908;28;20036;-45
2024/01/02 03:36:20;;;;;;;1.60;0.80;;;;;;;6.01;100.00;99147.63;5072026;28;20507;-46
2024/01/02 03:38:49;;;;;;;3.70;1.10;;;;;;;6.03;100.00;99135.28;5071992;28;20048;-47
2024/01/02 03:41:17;;;;;;;4.00;1.67;;;;;;;6.02;100.00;99135.41;5072048;28;20047;-47
2024/01/02 03:43:46;;;;;;;4.13;1.00;;;;;;;6.02;100.00;99127.56;5066793;28;20072;-47
2024/01/02 03:46:14;;;;;;;3.15;1.20;;;;;;;6.09;100.00;99113.97;5068258;28;20049;-47
2024/01/02 03:48:42;;;;;;;1.42;0.85;;;;;;;6.06;100.00;99105.50;5071694;28;20052;-47
2024/01/02 03:51:12;;;;;;;2.83;1.00;;;;;;;6.04;100.00;99082.13;5071734;28;20040;-45
2024/01/02 03:53:43;;;;;;;;;;;;;;;6.07;100.00;99074.06;5072323;28;20491;-45
2024/01/02 03:56:16;;;;;;;3.88;0.88;;;;;;;6.11;100.00;99066.84;5071514;28;19920;-46
2024/01/02 03:58:44;;;;;;;2.05;1.00;;;;;;;6.06;100.00;99050.72;5070195;28;20053;-46
2024/01/02 04:01:13;;;;;;;3.15;1.30;;;;;;;6.08;100.00;99040.97;5071545;28;20044;-47
2024/01/02 04:03:41;;;;;;;2.92;1.10;;;;;;;6.09;100.00;99035.66;5071702;28;20106;-46
2024/01/02 04:06:11;;;;;;;1.35;1.00;;;;;;;6.11;100.00;99032.94;5071583;28;20048;-45
2024/01/02 04:08:40;;;;;;;1.27;0.90;;;;;;;6.09;100.00;99032.19;5071614;28;20040;-47
2024/01/02 04:11:08;;;;;;;1.25;0.68;;;;;;;6.09;100.00;99024.38;5073136;28;20123;-46
2024/01/02 04:13:36;;;;;;;1.40;0.80;;;;;;;6.11;100.00;99027.72;5075942;28;20080;-47
2024/01/02 04:16:05;;;;;;;2.42;0.85;;;;;;;6.13;100.00;99038.84;5075658;28;20127;-45
2024/01/02 04:18:33;;;;;;;0.98;0.90;;;;;;;6.14;100.00;99027.47;5075609;28;20500;-47
2024/01/02 04:21:02;;;;;;;1.58;0.90;;;;;;;6.16;100.00;99015.16;5075649;28;20407;-47
2024/01/02 04:23:31;;;;;;;1.00;0.77;;;;;;;6.16;100.00;99009.94;5075638;28;20053;-47
2024/01/02 04:26:02;;;;;;;1.95;0.68;;;;;;;6.16;100.00;99009.94;5075329;28;20119;-47
2024/01/02 04:28:30;;;;;;;1.23;0.68;;;;;;;6.19;100.00;98948.78;5075010;28;20045;-46
2024/01/02 04:30:59;;;;;;;1.88;1.00;;;;;;;6.19;100.00;98990.56;5075150;28;20503;-47
2024/01/02 04:33:28;;;;;;;1.80;0.88;;;;;;;6.19;100.00;99008.84;5075311;28;20455;-46
2024/01/02 04:35:56;;;;;;;0.85;0.52;;;;;;;6.21;100.00;98991.28;5072990;28;20048;-47
2024/01/02 04:38:25;;;;;;;0.82;0.68;;;;;;;6.22;100.00;99004.22;5074564;28;20110;-49
2024/01/02 04:40:57;;;;;;;1.35;0.70;;;;;;;6.25;100.00;99003.16;5074720;28;20064;-47
2024/01/02 04:43:25;;;;;;;0.73;0.70;;;;;;;6.27;100.00;98988.19;5074824;28;20061;-45
2024/01/02 04:45:54;;;;;;;0.90;0.55;;;;;;;6.30;100.00;98976.69;5074572;28;20072;-47
2024/01/02 04:48:22;;;;;;;0.60;0.60;;;;;;;6.34;100.00;98965.06;5075046;28;20479;-46
2024/01/02 04:50:51;;;;;;;0.60;0.60;;;;;;;6.35;100.00;98945.84;5074693;28;20047;-45
2024/01/02 04:53:19;;;;;;;0.50;0.50;;;;;;;6.38;100.00;98936.00;5073415;28;20052;-46
2024/01/02 04:55:47;;;;;;;1.40;0.60;;;;;;;6.43;100.00;98919.97;5070351;28;20507;-48
2024/01/02 04:58:16;;;;;;;1.20;0.52;;;;;;;6.44;100.00;98937.28;5071229;28;20419;-45
2024/01/02 05:00:45;;;;;;;1.02;0.75;;;;;;;6.42;100.00;98949.63;5070947;28;20072;-47
2024/01/02 05:03:15;;;;;;;1.95;0.60;;;;;;;6.46;100.00;98945.00;5074547;28;20037;-47
2024/01/02 05:05:44;;;;;;;1.08;0.70;;;;;;;6.47;100.00;98957.13;5074563;28;20791;-46
2024/01/02 05:08:12;;;;;;;0.88;0.60;;;;;;;6.51;100.00;98950.72;5073330;28;20051;-49
2024/01/02 05:10:42;;;;;;;1.95;0.70;;;;;;;6.55;100.00;98947.72;5074257;28;20041;-46
2024/01/02 05:13:12;;;;;;;0.80;0.80;;;;;;;6.58;100.00;98937.03;5054700;28;20059;-45
2024/01/02 05:15:42;;;;;;;0.80;0.80;;;;;;;6.65;100.00;98928.72;5070771;28;20045;-45
2024/01/02 05:18:11;;;;;;;0.60;0.60;;;;;;;6.70;100.00;98918.75;5072373;28;21058;-47
2024/01/02 05:20:41;;;;;;;0.60;0.60;;;;;;;6.73;100.00;98923.72;5070654;28;20495;-49
2024/01/02 05:23:09;;;;;;;0.93;0.60;;;;;;;6.81;100.00;98921.31;5070614;28;20054;-45
2024/01/02 05:25:44;;;;;;;0.60;0.60;;;;;;;6.90;100.00;98893.63;5058597;28;20045;-47
2024/01/02 05:28:12;;;;;;;0.60;0.60;;;;;;;6.98;100.00;98901.69;5073682;28;20098;-47
2024/01/02 05:30:40;;;;;;;1.50;0.60;;;;;;;7.00;100.00;98920.66;5073871;28;20037;-50
2024/01/02 05:33:09;;;;;;;0.70;0.70;;;;;;;7.00;100.00;98933.72;5073845;28;20373;-48
2024/01/02 05:35:37;;;;;;;0.75;0.70;;;;;;;7.00;100.00;98918.06;5074132;28;20057;-47
2024/01/02 05:38:06;;;;;;;0.70;0.70;;;;;;;7.07;100.00;98918.38;5073879;28;20044;-48
2024/01/02 05:40:34;;;;;;;0.93;0.85;;;;;;;7.11;100.00;98915.38;5068890;28;20056;-49
2024/01/02 05:43:06;;;;;;;1.85;0.90;;;;;;;7.15;100.00;98909.94;5067046;28;20106;-48
2024/01/02 05:45:35;;;;;;;1.40;1.10;;;;;;;7.24;100.00;98912.63;5073771;28;20416;-50
2024/01/02 05:48:04;;;;;;;1.05;0.80;;;;;;;7.30;100.00;98910.47;5071196;28;20040;-50
2024/01/02 05:50:34;;;;;;;1.23;1.02;;;;;;;7.32;100.00;98903.31;5070571;28;20076;-47
2024/01/02 05:53:02;;;;;;;1.70;1.10;;;;;;;7.37;100.00;98909.00;5072803;28;20082;-47
2024/01/02 05:55:30;;;;;;;2.30;1.10;;;;;;;7.40;100.00;98909.59;5073603;28;20055;-59
2024/01/02 05:57:58;;;;;;;2.85;1.20;;;;;;;7.43;100.00;98921.53;5073772;28;20517;-49
2024/01/02 06:00:26;;;;;;;3.17;1.45;;;;;;;7.50;100.00;98920.09;5073577;28;20047;-48
2024/01/02 06:02:55;;;;;;;1.98;1.27;;;;;;;7.59;100.00;98914.13;5072323;28;20037;-48
2024/01/02 06:05:24;;;;;;;2.50;1.40;;;;;;;7.63;100.00;98901.59;5073485;28;20036;-47
2024/01/02 06:07:53;;;;;;;2.22;1.38;;;;;;;7.70;100.00;98904.53;5071853;28;20503;-49
2024/01/02 06:10:22;;;;;;;1.42;1.23;;;;;;;7.73;100.00;98905.09;5073267;28;20036;-58
2024/01/02 06:12:50;;;;;;;2.72;1.50;;;;;;;7.79;100.00;98906.38;5073153;28;20067;-47
2024/01/02 06:15:20;;;;;;;2.17;1.40;;;;;;;7.86;100.00;98902.25;5073091;28;20052;-59
2024/01/02 06:17:48;;;;;;;2.38;1.60;;;;;;;7.90;100.00;98918.56;5073166;28;20040;-59
2024/01/02 06:20:17;;;;;;;4.85;1.60;;;;;;;7.98;100.00;98920.53;5053474;28;20472;-59
2024/01/02 06:22:45;;;;;;;2.83;1.50;;;;;;;8.00;100.00;98918.59;5058601;28;20036;-59
2024/01/02 06:25:15;;;;;;;2.80;1.67;;;;;;;8.06;100.00;98929.38;5073133;28;20067;-59
2024/01/02 06:27:43;;;;;;;3.58;1.80;;;;;;;8.09;100.00;98933.53;5071809;28;20044;-59
2024/01/02 06:30:12;;;;;;;3.42;1.77;;;;;;;8.13;100.00;98924.44;5072602;28;20044;-59
2024/01/02 06:32:40;;;;;;;4.13;2.00;;;;;;;8.19;100.00;98928.34;5072137;28;20049;-59
2024/01/02 06:35:09;;;;;;;3.70;1.98;;;;;;;8.21;100.00;98923.81;5068971;28;20486;-59
2024/01/02 06:37:37;;;;;;;3.85;1.80;;;;;;;8.26;100.00;98932.91;5070819;28;20044;-59
2024/01/02 06:40:07;;;;;;;3.42;1.80;;;;;;;8.31;100.00;98932.50;5072617;28;20118;-59
2024/01/02 06:42:36;;;;;;;3.88;1.80;;;;;;;8.36;100.00;98935.56;5072826;28;20129;-59
2024/01/02 06:45:05;;;;;;;5.10;2.20;;;;;;;8.40;100.00;98938.78;5072225;28;20044;-59
2024/01/02 06:47:33;;;;;;;6.03;2.63;;;;;;;8.46;100.00;98939.06;5072915;28;20046;-59
2024/01/02 06:50:02;;;;;;;5.43;2.35;;;;;;;8.53;100.00;98946.41;5072356;28;20141;-59
2024/01/02 06:52:31;;;;;;;5.97;3.08;;;;;;;8.58;100.00;98966.00;5072736;28;20053;-59
2024/01/02 06:54:59;;;;;;;7.22;3.25;;;;;;;8.65;100.00;98966.31;5072080;28;20063;-59
2024/01/02 06:57:27;;;;;;;8.25;3.50;;;;;;;8.71;100.00;98970.19;5068545;28;20048;-59
2024/01/02 06:59:56;;;;;;;9.05;3.33;;;;;;;8.76;100.00;98970.63;5069159;28;20040;-59
2024/01/02 07:02:25;;;;;;;9.60;4.40;;;;;;;8.79;100.00;98972.97;5072448;28;20120;-59
2024/01/02 07:04:53;;;;;;;11.48;5.13;;;;;;;8.83;100.00;98974.34;5072148;28;20052;-59
2024/01/02 07:07:21;;;;;;;10.18;5.55;;;;;;;8.88;100.00;98977.41;5072260;28;20048;-59
2024/01/02 07:09:49;;;;;;;13.88;5.72;;;;;;;8.94;100.00;98979.50;5072007;28;20072;-59
2024/01/02 07:12:18;;;;;;;11.82;5.25;;;;;;;8.98;100.00;98974.81;5071940;28;20044;-59
2024/01/02 07:14:47;;;;;;;13.75;6.47;;;;;;;8.99;100.00;98978.25;5070874;28;20117;-59
2024/01/02 07:17:19;;;;;;;13.23;6.20;;;;;;;9.05;100.00;98973.31;5068501;28;20052;-59
2024/01/02 07:19:48;;;;;;;13.98;7.32;;;;;;;9.10;100.00;98978.13;5067704;28;20135;-60
2024/01/02 07:22:16;;;;;;;13.45;6.55;;;;;;;9.13;100.00;98980.47;5068996;28;20068;-59
2024/01/02 07:24:44;;;;;;;12.90;6.68;;;;;;;9.17;100.00;98981.88;5069081;28;20102;-59
2024/01/02 07:27:14;;;;;;;18.85;7.63;;;;;;;9.17;100.00;98989.72;5072158;28;20504;-59
2024/01/02 07:29:45;;;;;;;11.60;6.32;;;;;;;9.19;100.00;98985.19;5070511;28;20052;-59
2024/01/02 07:32:14;;;;;;;17.77;6.88;;;;;;;9.23;100.00;98997.06;5071447;28;20037;-58
2024/01/02 07:34:43;;;;;;;19.02;6.88;;;;;;;9.23;100.00;98998.84;5071600;28;20059;-59
2024/01/02 07:37:12;;;;;;;16.25;6.70;;;;;;;9.26;100.00;99012.53;5071252;28;20044;-59
2024/01/02 07:39:40;;;;;;;18.35;7.40;;;;;;;9.30;100.00;99013.91;5071720;28;20048;-59
2024/01/02 07:42:09;;;;;;;17.67;7.15;;;;;;;9.34;100.00;99017.09;5068056;28;20064;-58
2024/01/02 07:44:37;;;;;;;16.33;6.80;;;;;;;9.37;100.00;99024.69;5067748;28;20076;-59
2024/01/02 07:47:05;;;;;;;17.88;6.65;;;;;;;9.35;100.00;99017.94;5069109;28;20041;-59
2024/01/02 07:49:33;;;;;;;18.60;6.45;;;;;;;9.38;100.00;99038.63;5071671;28;20040;-59
2024/01/02 07:52:03;;;;;;;17.77;6.85;;;;;;;9.39;100.00;99048.16;5071816;28;20486;-59
2024/01/02 07:54:31;;;;;;;16.92;6.95;;;;;;;9.40;100.00;99040.16;5071810;28;20523;-59
2024/01/02 07:56:59;;;;;;;15.20;6.32;;;;;;;9.42;100.00;99050.50;5069777;28;20052;-59
2024/01/02 07:59:31;;;;;;;16.27;5.85;;;;;;;9.43;100.00;99065.28;5067790;28;20764;-60
2024/01/02 08:02:00;;;;;;;19.08;5.57;;;;;;;9.47;100.00;99058.81;5069278;28;20044;-59
2024/01/02 08:04:29;;;;;;;16.15;6.05;;;;;;;9.50;100.00;99066.41;5070675;28;20039;-59
2024/01/02 08:06:59;;;;;;;19.40;5.95;;;;;;;9.49;100.00;99056.91;5070264;28;20044;-58
2024/01/02 08:09:29;;;;;;;17.55;6.28;;;;;;;9.50;100.00;99061.16;5070295;28;20048;-59
2024/01/02 08:11:57;;;;;;;18.60;5.97;;;;;;;9.53;100.00;99055.66;5065232;28;20471;-59
2024/01/02 08:14:25;;;;;;;18.15;5.43;;;;;;;9.55;100.00;99063.38;5065615;28;20139;-58
2024/01/02 08:16:53;;;;;;;17.10;4.53;;;;;;;9.55;100.00;99066.00;5071312;28;20491;-59
2024/01/02 08:19:21;;;;;;;20.42;4.97;;;;;;;9.55;100.00;99068.63;5071664;28;20066;-59
2024/01/02 08:21:50;;;;;;;16.23;4.35;;;;;;;9.58;100.00;99066.53;5071326;28;20460;-59
2024/01/02 08:24:18;;;;;;;17.02;4.93;;;;;;;9.57;100.00;99061.44;5070552;28;20075;-59
2024/01/02 08:26:50;;;;;;;21.77;4.95;;;;;;;9.58;100.00;99063.91;5067541;28;20052;-59
2024/01/02 08:29:19;;;;;;;20.95;4.72;;;;;;;9.61;100.00;99061.03;5070494;28;20044;-59
2024/01/02 08:31:51;;;;;;;23.02;4.75;;;;;;;9.59;100.00;99062.16;5071414;28;20123;-60
2024/01/02 08:34:19;;;;;;;21.30;5.07;;;;;;;9.61;100.00;99065.44;5071157;28;20076;-59
2024/01/02 08:36:47;;;;;;;25.10;5.05;;;;;;;9.62;100.00;99065.31;5071460;28;20049;-58
2024/01/02 08:39:14;;;;;;;26.33;4.72;;;;;;;9.68;100.00;99068.34;5071295;28;20074;-59
2024/01/02 08:41:43;;;;;;;28.60;5.22;;;;;;;9.67;100.00;99056.19;5071230;28;20036;-54
2024/01/02 08:44:12;;;;;;;21.70;5.10;;;;;;;9.67;100.00;99058.81;5071418;28;20087;-59
2024/01/02 08:46:43;;;;;;;25.58;4.55;;;;;;;9.69;100.00;99057.72;5070232;28;20037;-59
2024/01/02 08:49:13;;;;;;;23.63;4.60;;;;;;;9.70;100.00;99069.88;5071203;28;20048;-59
2024/01/02 08:51:42;;;;;;;22.65;4.78;;;;;;;9.71;100.00;99078.59;5071311;28;20127;-59
2024/01/02 08:54:10;;;;;;;28.95;4.95;;;;;;;9.73;100.00;99076.66;5068610;28;20048;-59
2024/01/02 08:56:38;;;;;;;23.27;4.55;;;;;;;9.73;100.00;99066.16;5068570;28;20094;-59
2024/01/02 08:59:07;;;;;;;29.48;4.60;;;;;;;9.77;100.00;99078.03;5074712;28;20399;-59
2024/01/02 09:01:37;;;;;;;28.52;5.93;;;;;;;9.78;100.00;99080.53;5074609;28;20411;-59
2024/01/02 09:04:05;;;;;;;24.38;5.28;;;;;;;9.79;100.00;99076.94;5073298;28;20049;-59
2024/01/02 09:06:34;;;;;;;27.52;5.18;;;;;;;9.78;100.00;99077.06;5074906;28;20033;-58
2024/01/02 09:09:04;;;;;;;21.13;5.20;;;;;;;9.81;100.00;99082.88;5075017;28;20074;-58
2024/01/02 09:11:34;;;;;;;19.42;4.97;;;;;;;9.82;100.00;99079.28;5074870;28;20071;-59
2024/01/02 09:14:02;;;;;;;23.58;5.70;;;;;;;9.84;100.00;99071.25;5073482;28;20045;-59
2024/01/02 09:16:31;;;;;;;18.27;4.95;;;;;;;9.84;100.00;99063.38;5070900;28;20131;-58
2024/01/02 09:19:01;;;;;;;19.00;5.10;;;;;;;9.86;100.00;99066.72;5073289;28;20051;-58
2024/01/02 09:21:30;;;;;;;20.80;4.50;;;;;;;9.87;100.00;99063.13;5071286;28;20052;-59
2024/01/02 09:23:59;;;;;;;19.65;4.88;;;;;;;9.89;100.00;99065.59;5072003;28;20373;-59
2024/01/02 09:26:27;;;;;;;18.92;4.60;;;;;;;9.89;100.00;99063.81;5073296;28;20080;-59
2024/01/02 09:28:55;;;;;;;21.10;4.63;;;;;;;9.88;100.00;99059.50;5074495;28;20045;-59
2024/01/02 09:31:26;;;;;;;20.05;6.18;;;;;;;9.91;100.00;99055.78;5074458;28;20040;-59
2024/01/02 09:33:54;;;;;;;20.30;4.63;;;;;;;9.95;100.00;99063.25;5070813;28;20044;-59
2024/01/02 09:36:24;;;;;;;21.70;5.07;;;;;;;9.96;100.00;99054.38;5071672;28;20115;-59
2024/01/02 09:38:52;;;;;;;21.25;5.32;;;;;;;9.98;100.00;99062.16;5074333;28;20058;-59
2024/01/02 09:41:47;;;;;;;16.50;4.72;;;;;;;9.98;100.00;99068.22;5073180;28;20044;-59
2024/01/02 09:44:34;;;;;;;21.25;5.30;;;;;;;10.03;100.00;99057.28;5067825;28;20048;-59
2024/01/02 09:47:17;;;;;;;18.80;5.93;;;;;;;10.08;100.00;99057.72;5070569;28;20054;-59
2024/01/02 09:49:57;;;;;;;18.92;4.88;;;;;;;10.11;100.00;99059.22;5071460;28;20075;-59
2024/01/02 09:52:53;;;;;;;23.23;5.70;;;;;;;10.16;100.00;99049.13;5073260;28;20041;-59
2024/01/02 09:55:30;;;;;;;19.70;5.80;;;;;;;10.17;100.00;99055.19;5074126;28;20495;-59
2024/01/02 09:58:14;;;;;;;24.65;6.32;;;;;;;10.20;100.00;99054.91;5072687;28;20056;-58
2024/01/02 10:00:53;;;;;;;23.15;7.18;;;;;;;10.19;100.00;99056.72;5073908;28;20094;-59
2024/01/02 10:03:47;;;;;;;17.75;7.10;;;;;;;10.23;100.00;99052.84;5070092;28;20063;-58
2024/01/02 10:06:35;;;;;;;17.83;6.90;;;;;;;10.21;100.00;99054.78;5067862;28;20530;-58
2024/01/02 10:09:25;;;;;;;19.73;8.23;;;;;;;10.21;100.00;99059.19;5069648;28;20052;-58
2024/01/02 10:12:01;;;;;;;15.77;8.45;;;;;;;10.22;100.00;99060.88;5072163;28;20771;-59
2024/01/02 10:14:37;;;;;;;20.08;8.18;;;;;;;10.21;100.00;99054.78;5069931;28;20491;-58
2024/01/02 10:17:17;;;;;;;20.90;8.68;;;;;;;10.23;100.00;99057.28;5072426;28;20053;-59
2024/01/02 10:19:54;;;;;;;18.85;8.07;;;;;;;10.27;100.00;99053.41;5073592;28;20048;-59
2024/01/02 10:22:32;;;;;;;17.70;8.00;;;;;;;10.28;100.00;99031.38;5073540;28;20510;-59
2024/01/02 10:25:09;;;;;;;17.73;8.13;;;;;;;10.31;100.00;99033.75;5073615;28;20119;-59
2024/01/02 10:27:43;;;;;;;21.63;8.63;;;;;;;10.31;100.00;99028.50;5073488;28;20052;-59
2024/01/02 10:30:12;;;;;;;18.70;8.35;;;;;;;10.35;100.00;99029.91;5073390;28;20549;-59
2024/01/02 10:33:02;;;;;;;20.30;8.27;;;;;;;10.41;100.00;99025.88;5071889;28;20052;-58
2024/01/02 10:35:38;;;;;;;15.98;7.90;;;;;;;10.41;100.00;99018.81;5068308;28;20040;-46
2024/01/02 10:38:10;;;;;;;13.98;7.18;;;;;;;10.40;100.00;99024.19;5070798;28;20052;-50
2024/01/02 10:40:42;;;;;;;;;;;;;;;10.41;100.00;99012.72;5072355;28;20649;-48
2024/01/02 10:43:19;;;;;;;11.45;6.57;;;;;;;10.40;100.00;99018.94;5072756;28;19924;-45
2024/01/02 10:45:57;;;;;;;14.10;6.72;;;;;;;10.39;100.00;99014.66;5073075;28;20040;-46
2024/01/02 10:48:39;;;;;;;12.20;5.72;;;;;;;10.43;100.00;99016.03;5070008;28;20040;-47
2024/01/02 10:51:09;;;;;;;10.77;6.07;;;;;;;10.41;100.00;99016.16;5068224;28;20063;-46
2024/01/02 10:53:49;;;;;;;12.43;4.97;;;;;;;10.41;100.00;99012.72;5072789;28;20045;-47
2024/01/02 10:56:35;;;;;;;11.00;5.80;;;;;;;10.42;100.00;99003.88;5072653;28;20102;-45
2024/01/02 10:59:22;;;;;;;10.40;4.32;;;;;;;10.44;100.00;98999.28;5069635;28;20048;-48
2024/01/02 11:01:57;;;;;;;8.18;4.45;;;;;;;10.41;100.00;98986.44;5071659;28;20495;-47
2024/01/02 11:04:34;;;;;;;7.03;4.05;;;;;;;10.42;100.00;98993.38;5069907;28;20032;-48
2024/01/02 11:07:06;;;;;;;6.80;3.50;;;;;;;10.41;100.00;98987.25;5067741;28;20052;-47
2024/01/02 11:09:44;;;;;;;6.60;3.50;;;;;;;10.46;100.00;98989.47;5072034;28;20060;-47
2024/01/02 11:12:18;;;;;;;7.75;3.80;;;;;;;10.41;100.00;98981.19;5071838;28;20054;-47
2024/01/02 11:14:47;;;;;;;6.85;3.60;;;;;;;10.39;100.00;98976.09;5072019;28;20044;-47
2024/01/02 11:17:18;;;;;;;7.43;3.30;;;;;;;10.39;100.00;98972.59;5068579;28;20161;-49
2024/01/02 11:19:56;;;;;;;5.55;3.10;;;;;;;10.40;100.00;98974.28;5057751;28;20448;-46
2024/01/02 11:22:30;;;;;;;5.75;3.00;;;;;;;10.40;100.00;98969.88;5068536;28;20048;-50
2024/01/02 11:25:04;;;;;;;4.95;2.78;;;;;;;10.38;100.00;98961.28;5071672;28;20044;-47
2024/01/02 11:27:38;;;;;;;6.30;2.40;;;;;;;10.42;100.00;98959.22;5071140;28;20427;-51
2024/01/02 11:30:11;;;;;;;4.63;2.47;;;;;;;10.39;100.00;98955.06;5071342;28;20453;-49
2024/01/02 11:32:49;;;;;;;3.47;2.03;;;;;;;10.40;100.00;98946.22;5065173;28;20105;-47
2024/01/02 11:35:18;;;;;;;2.83;1.90;;;;;;;10.38;100.00;98934.19;5067854;28;20124;-47
2024/01/02 11:38:00;;;;;;;3.65;1.88;;;;;;;10.39;100.00;98939.28;5067804;28;20048;-48
2024/01/02 11:40:32;;;;;;;2.97;1.90;;;;;;;10.39;100.00;98930.56;5067340;28;20048;-47
2024/01/02 11:43:10;;;;;;;3.72;1.70;;;;;;;10.38;100.00;98926.31;5066060;28;20059;-48